createdAt,value
2018-09-27T00:01:07.828Z,99.90
2018-09-27T00:03:38.325Z,99.90
2018-09-27T00:06:08.409Z,99.90
2018-09-27T00:08:38.921Z,99.90
2018-09-27T00:11:08.139Z,99.90
2018-09-27T00:13:38.924Z,99.90
2018-09-27T00:16:08.501Z,99.90
2018-09-27T00:18:37.894Z,99.90
2018-09-27T00:21:06.978Z,99.90
2018-09-27T00:23:37.833Z,99.90
2018-09-27T00:26:08.424Z,99.90
2018-09-27T00:28:39.129Z,99.90
2018-09-27T00:31:08.974Z,99.90
2018-09-27T00:33:38.150Z,99.90
2018-09-27T00:36:07.233Z,99.90
2018-09-27T00:38:36.266Z,99.90
2018-09-27T00:41:07.160Z,99.90
2018-09-27T00:43:38.501Z,99.90
2018-09-27T00:46:07.768Z,99.90
2018-09-27T00:48:36.861Z,99.90
2018-09-27T00:51:05.945Z,99.90
2018-09-27T00:53:35.119Z,99.90
2018-09-27T00:56:04.196Z,99.90
2018-09-27T00:58:33.229Z,99.90
2018-09-27T01:01:02.309Z,99.90
2018-09-27T01:03:31.350Z,99.90
2018-09-27T01:06:00.426Z,99.90
2018-09-27T01:08:29.494Z,99.90
2018-09-27T01:10:58.569Z,99.90
2018-09-27T01:13:28.125Z,99.90
2018-09-27T01:15:57.853Z,99.90
2018-09-27T01:18:26.914Z,99.90
2018-09-27T01:20:56.010Z,99.90
2018-09-27T01:23:25.078Z,99.90
2018-09-27T01:25:54.150Z,99.90
2018-09-27T01:28:23.217Z,99.90
2018-09-27T01:30:52.297Z,99.90
2018-09-27T01:33:21.390Z,99.90
2018-09-27T01:35:50.491Z,99.90
2018-09-27T01:38:19.561Z,99.90
2018-09-27T01:40:48.674Z,99.90
2018-09-27T01:43:17.800Z,99.90
2018-09-27T01:45:46.870Z,99.90
2018-09-27T01:48:16.058Z,99.90
2018-09-27T01:50:45.151Z,99.90
2018-09-27T01:53:14.202Z,99.90
2018-09-27T01:55:43.306Z,99.90
2018-09-27T01:58:12.378Z,99.90
2018-09-27T02:00:41.490Z,99.90
2018-09-27T02:03:10.531Z,99.90
2018-09-27T02:05:39.606Z,99.90
2018-09-27T02:08:08.669Z,99.90
2018-09-27T02:10:37.745Z,99.90
2018-09-27T02:13:07.058Z,99.90
2018-09-27T02:15:36.130Z,99.90
2018-09-27T02:18:05.225Z,99.90
2018-09-27T02:20:34.294Z,99.90
2018-09-27T02:23:03.440Z,99.90
2018-09-27T02:25:32.502Z,99.90
2018-09-27T02:28:01.603Z,99.90
2018-09-27T02:30:30.683Z,99.90
2018-09-27T02:32:59.738Z,99.90
2018-09-27T02:35:28.790Z,99.90
2018-09-27T02:37:57.857Z,99.90
2018-09-27T02:40:27.013Z,99.90
2018-09-27T02:42:56.176Z,99.90
2018-09-27T02:45:25.283Z,99.90
2018-09-27T02:47:54.418Z,99.90
2018-09-27T02:50:23.526Z,99.90
2018-09-27T02:52:52.869Z,99.90
2018-09-27T02:55:21.985Z,99.90
2018-09-27T02:57:51.150Z,99.90
2018-09-27T03:00:20.278Z,99.90
2018-09-27T03:02:49.534Z,99.90
2018-09-27T03:05:18.674Z,99.90
2018-09-27T03:07:47.819Z,99.90
2018-09-27T03:10:16.929Z,99.90
2018-09-27T03:12:46.058Z,99.90
2018-09-27T03:15:15.169Z,99.90
2018-09-27T03:17:44.323Z,99.90
2018-09-27T03:20:13.454Z,99.90
2018-09-27T03:22:42.578Z,99.90
2018-09-27T03:25:11.690Z,99.90
2018-09-27T03:27:40.830Z,99.90
2018-09-27T03:30:10.065Z,99.90
2018-09-27T03:35:13.522Z,99.90
2018-09-27T03:37:42.645Z,99.90
2018-09-27T03:40:11.895Z,99.90
2018-09-27T03:42:41.116Z,99.90
2018-09-27T03:45:10.246Z,99.90
2018-09-27T03:47:39.378Z,99.90
2018-09-27T03:50:08.542Z,99.90
2018-09-27T03:52:38.029Z,99.90
2018-09-27T03:55:07.193Z,99.90
2018-09-27T03:57:36.306Z,99.90
2018-09-27T04:00:06.834Z,99.90
2018-09-27T04:02:35.944Z,99.90
2018-09-27T04:05:06.178Z,99.90
2018-09-27T04:07:35.311Z,99.90
2018-09-27T04:10:04.603Z,99.90
2018-09-27T04:12:33.833Z,99.90
2018-09-27T04:15:03.306Z,99.90
2018-09-27T04:17:32.374Z,99.90
2018-09-27T04:20:01.455Z,99.90
2018-09-27T04:22:30.700Z,99.90
2018-09-27T04:24:59.783Z,99.90
2018-09-27T04:27:28.850Z,99.90
2018-09-27T04:29:57.945Z,99.90
2018-09-27T04:32:27.007Z,99.90
2018-09-27T04:34:56.102Z,99.90
2018-09-27T04:37:25.185Z,99.90
2018-09-27T04:39:54.362Z,99.90
2018-09-27T04:42:23.377Z,99.90
2018-09-27T04:44:52.459Z,99.90
2018-09-27T04:47:21.815Z,99.90
2018-09-27T04:49:50.894Z,99.90
2018-09-27T04:52:20.069Z,99.90
2018-09-27T04:54:49.236Z,99.90
2018-09-27T04:57:18.553Z,99.90
2018-09-27T04:59:47.687Z,99.90
2018-09-27T05:02:17.097Z,99.90
2018-09-27T05:04:46.270Z,99.90
2018-09-27T05:07:15.390Z,99.90
2018-09-27T05:09:44.657Z,99.90
2018-09-27T05:12:13.661Z,99.90
2018-09-27T05:14:42.821Z,99.90
2018-09-27T05:17:11.937Z,99.90
2018-09-27T05:19:41.098Z,99.90
2018-09-27T05:22:10.229Z,99.90
2018-09-27T05:24:39.332Z,99.90
2018-09-27T05:27:09.167Z,99.90
2018-09-27T05:29:38.304Z,99.90
2018-09-27T05:32:08.076Z,99.90
2018-09-27T05:34:37.203Z,99.90
2018-09-27T05:37:06.366Z,99.90
2018-09-27T05:39:35.504Z,99.90
2018-09-27T05:42:04.758Z,99.90
2018-09-27T05:44:33.913Z,99.90
2018-09-27T05:47:03.142Z,99.90
2018-09-27T05:49:32.308Z,99.90
2018-09-27T05:52:01.553Z,99.90
2018-09-27T05:54:30.733Z,99.90
2018-09-27T05:56:59.919Z,99.90
2018-09-27T05:59:29.098Z,99.90
2018-09-27T06:01:58.341Z,99.90
2018-09-27T06:04:27.483Z,99.90
2018-09-27T06:06:56.693Z,99.90
2018-09-27T06:09:25.871Z,99.90
2018-09-27T06:11:55.402Z,99.90
2018-09-27T06:14:24.566Z,99.90
2018-09-27T06:16:53.766Z,99.90
2018-09-27T06:19:23.031Z,99.90
2018-09-27T06:21:52.313Z,99.90
2018-09-27T06:24:21.479Z,99.90
2018-09-27T06:26:50.738Z,99.90
2018-09-27T06:29:19.896Z,99.90
2018-09-27T06:31:49.093Z,99.90
2018-09-27T06:34:19.005Z,99.90
2018-09-27T06:36:48.194Z,99.90
2018-09-27T06:39:17.414Z,99.90
2018-09-27T06:41:46.617Z,99.90
2018-09-27T06:44:15.810Z,99.90
2018-09-27T06:46:45.019Z,99.90
2018-09-27T06:49:14.186Z,99.90
2018-09-27T06:51:44.931Z,99.90
2018-09-27T06:54:14.163Z,99.90
2018-09-27T06:56:43.539Z,99.90
2018-09-27T06:59:12.814Z,99.90
2018-09-27T07:01:42.054Z,99.90
2018-09-27T07:04:11.233Z,99.90
2018-09-27T07:06:40.446Z,99.90
2018-09-27T07:09:11.816Z,99.90
2018-09-27T07:11:41.114Z,99.90
2018-09-27T07:14:11.205Z,99.90
2018-09-27T07:16:40.398Z,99.90
2018-09-27T07:19:10.133Z,99.90
2018-09-27T07:21:39.494Z,99.90
2018-09-27T07:24:09.041Z,99.90
2018-09-27T07:26:38.222Z,99.90
2018-09-27T07:29:08.050Z,99.90
2018-09-27T07:31:37.238Z,99.90
2018-09-27T07:34:06.504Z,99.90
2018-09-27T07:36:35.754Z,99.90
2018-09-27T07:39:08.071Z,99.90
2018-09-27T07:41:38.094Z,99.90
2018-09-27T07:44:08.163Z,99.90
2018-09-27T07:46:37.381Z,99.90
2018-09-27T07:49:07.473Z,99.90
2018-09-27T07:51:37.109Z,99.90
2018-09-27T07:54:06.645Z,99.90
2018-09-27T07:56:35.844Z,99.90
2018-09-27T07:59:05.064Z,99.90
2018-09-27T08:01:34.241Z,99.90
2018-09-27T08:04:03.497Z,99.90
2018-09-27T08:06:32.642Z,99.90
2018-09-27T08:09:01.902Z,99.90
2018-09-27T08:11:31.503Z,99.90
2018-09-27T08:14:00.690Z,99.90
2018-09-27T08:16:29.881Z,99.90
2018-09-27T08:18:59.106Z,99.90
2018-09-27T08:21:28.582Z,99.90
2018-09-27T08:23:57.860Z,99.90
2018-09-27T08:26:27.037Z,99.90
2018-09-27T08:28:56.244Z,99.90
2018-09-27T08:31:27.678Z,99.90
2018-09-27T08:33:56.882Z,99.90
2018-09-27T08:36:26.230Z,99.90
2018-09-27T08:38:56.444Z,99.90
2018-09-27T08:41:25.745Z,99.90
2018-09-27T08:43:54.925Z,99.90
2018-09-27T08:46:24.041Z,99.90
2018-09-27T08:48:53.174Z,99.90
2018-09-27T08:51:22.684Z,99.90
2018-09-27T08:53:51.829Z,99.90
2018-09-27T08:56:22.034Z,99.90
2018-09-27T08:58:51.534Z,99.90
2018-09-27T09:01:20.655Z,99.90
2018-09-27T09:03:49.866Z,99.90
2018-09-27T09:06:19.391Z,99.90
2018-09-27T09:08:48.539Z,99.90
2018-09-27T09:11:17.791Z,99.90
2018-09-27T09:13:46.935Z,99.90
2018-09-27T09:16:16.072Z,99.90
2018-09-27T09:18:45.223Z,99.90
2018-09-27T09:21:14.352Z,99.90
2018-09-27T09:23:43.507Z,99.90
2018-09-27T09:26:12.777Z,99.90
2018-09-27T09:28:41.964Z,99.90
2018-09-27T09:31:11.083Z,99.90
2018-09-27T09:33:40.252Z,99.70
2018-09-27T09:36:09.406Z,98.80
2018-09-27T09:38:38.565Z,97.10
2018-09-27T09:41:07.877Z,95.30
2018-09-27T09:43:37.237Z,97.10
2018-09-27T09:46:06.527Z,97.30
2018-09-27T09:48:35.798Z,96.50
2018-09-27T09:51:05.028Z,95.60
2018-09-27T09:53:34.210Z,95.00
2018-09-27T09:56:04.169Z,93.40
2018-09-27T09:58:33.848Z,92.50
2018-09-27T10:01:03.039Z,92.30
2018-09-27T10:03:32.210Z,91.60
2018-09-27T10:06:01.437Z,91.40
2018-09-27T10:08:30.613Z,91.50
2018-09-27T10:10:59.833Z,88.30
2018-09-27T10:13:29.081Z,87.20
2018-09-27T10:15:58.302Z,84.70
2018-09-27T10:18:27.567Z,83.80
2018-09-27T10:20:57.365Z,81.10
2018-09-27T10:23:27.240Z,80.90
2018-09-27T10:25:57.257Z,83.50
2018-09-27T10:28:27.504Z,80.50
2018-09-27T10:30:58.449Z,80.70
2018-09-27T10:33:28.804Z,80.10
2018-09-27T10:36:00.893Z,76.30
2018-09-27T10:38:30.924Z,75.50
2018-09-27T10:41:00.794Z,76.80
2018-09-27T10:43:30.050Z,75.20
2018-09-27T10:46:00.257Z,73.60
2018-09-27T10:48:29.454Z,70.10
2018-09-27T10:50:58.610Z,67.20
2018-09-27T10:53:27.754Z,66.40
2018-09-27T10:55:56.903Z,66.30
2018-09-27T10:58:26.029Z,63.60
2018-09-27T11:00:55.283Z,64.00
2018-09-27T11:03:24.428Z,61.50
2018-09-27T11:05:53.568Z,60.30
2018-09-27T11:08:22.686Z,59.60
2018-09-27T11:10:51.896Z,59.70
2018-09-27T11:13:21.010Z,57.10
2018-09-27T11:15:50.298Z,56.40
2018-09-27T11:18:19.426Z,55.90
2018-09-27T11:20:48.950Z,56.10
2018-09-27T11:23:18.069Z,55.80
2018-09-27T11:25:47.182Z,54.70
2018-09-27T11:28:16.329Z,54.00
2018-09-27T11:30:45.506Z,52.80
2018-09-27T11:33:14.656Z,52.20
2018-09-27T11:35:43.793Z,53.30
2018-09-27T11:38:12.937Z,53.00
2018-09-27T11:40:42.177Z,54.20
2018-09-27T11:43:11.267Z,51.30
2018-09-27T11:45:40.342Z,50.10
2018-09-27T11:48:09.426Z,50.80
2018-09-27T11:50:38.567Z,51.30
2018-09-27T11:53:07.662Z,49.90
2018-09-27T11:55:36.738Z,51.50
2018-09-27T11:58:05.918Z,50.80
2018-09-27T12:00:35.070Z,51.30
2018-09-27T12:03:04.118Z,51.00
2018-09-27T12:05:33.173Z,49.00
2018-09-27T12:08:02.259Z,49.50
2018-09-27T12:10:31.363Z,49.60
2018-09-27T12:13:01.450Z,50.00
2018-09-27T12:15:30.678Z,50.30
2018-09-27T12:17:59.762Z,49.60
2018-09-27T12:20:29.046Z,48.50
2018-09-27T12:22:58.177Z,49.30
2018-09-27T12:25:27.227Z,48.20
2018-09-27T12:27:56.306Z,47.70
2018-09-27T12:30:25.403Z,48.40
2018-09-27T12:32:54.478Z,47.40
2018-09-27T12:35:23.543Z,48.10
2018-09-27T12:37:52.813Z,47.40
2018-09-27T12:40:21.946Z,48.70
2018-09-27T12:42:51.127Z,47.00
2018-09-27T12:45:20.259Z,47.60
2018-09-27T12:47:49.418Z,47.20
2018-09-27T12:50:18.545Z,46.70
2018-09-27T12:52:47.704Z,47.40
2018-09-27T12:55:16.804Z,49.30
2018-09-27T12:57:45.931Z,48.40
2018-09-27T13:00:15.158Z,48.10
2018-09-27T13:02:44.498Z,48.60
2018-09-27T13:05:13.454Z,50.80
2018-09-27T13:07:42.578Z,49.50
2018-09-27T13:10:11.857Z,49.30
2018-09-27T13:12:41.023Z,49.40
2018-09-27T13:15:10.125Z,49.10
2018-09-27T13:17:39.336Z,49.90
2018-09-27T13:20:08.688Z,48.90
2018-09-27T13:22:37.790Z,49.10
2018-09-27T13:25:07.037Z,49.30
2018-09-27T13:27:36.226Z,51.40
2018-09-27T13:30:05.469Z,51.60
2018-09-27T13:32:34.721Z,50.70
2018-09-27T13:35:03.885Z,50.50
2018-09-27T13:37:33.000Z,49.80
2018-09-27T13:40:02.200Z,50.50
2018-09-27T13:42:31.510Z,50.80
2018-09-27T13:45:00.725Z,49.90
2018-09-27T13:47:29.791Z,49.50
2018-09-27T13:49:58.922Z,51.00
2018-09-27T13:52:28.067Z,52.70
2018-09-27T13:54:57.207Z,50.80
2018-09-27T13:57:26.488Z,52.60
2018-09-27T13:59:55.538Z,52.00
2018-09-27T14:02:24.654Z,53.70
2018-09-27T14:04:53.809Z,53.30
2018-09-27T14:07:22.926Z,52.20
2018-09-27T14:09:52.054Z,52.90
2018-09-27T14:12:21.261Z,51.50
2018-09-27T14:14:50.462Z,51.80
2018-09-27T14:17:19.590Z,52.20
2018-09-27T14:19:48.884Z,51.20
2018-09-27T14:22:17.985Z,51.60
2018-09-27T14:24:47.142Z,50.20
2018-09-27T14:27:16.262Z,50.20
2018-09-27T14:29:45.404Z,50.50
2018-09-27T14:32:14.587Z,49.20
2018-09-27T14:34:43.872Z,50.90
2018-09-27T14:37:13.159Z,50.90
2018-09-27T14:39:42.377Z,50.40
2018-09-27T14:42:11.985Z,48.80
2018-09-27T14:44:41.467Z,49.10
2018-09-27T14:47:11.067Z,50.30
2018-09-27T14:49:40.499Z,50.10
2018-09-27T14:52:09.810Z,50.40
2018-09-27T14:54:38.986Z,49.70
2018-09-27T14:57:08.113Z,50.40
2018-09-27T14:59:37.402Z,51.10
2018-09-27T15:02:06.676Z,52.30
2018-09-27T15:04:35.869Z,50.90
2018-09-27T15:07:04.974Z,51.50
2018-09-27T15:09:34.200Z,51.30
2018-09-27T15:12:03.748Z,52.90
2018-09-27T15:14:32.917Z,54.00
2018-09-27T15:17:02.025Z,54.40
2018-09-27T15:19:31.178Z,52.50
2018-09-27T15:22:00.611Z,54.40
2018-09-27T15:24:29.733Z,54.80
2018-09-27T15:27:00.014Z,55.50
2018-09-27T15:29:29.142Z,53.00
2018-09-27T15:31:58.978Z,52.70
2018-09-27T15:34:28.086Z,52.50
2018-09-27T15:36:57.232Z,52.70
2018-09-27T15:39:27.697Z,53.50
2018-09-27T15:41:56.874Z,53.80
2018-09-27T15:44:26.078Z,54.60
2018-09-27T15:46:55.210Z,56.10
2018-09-27T15:49:24.470Z,55.70
2018-09-27T15:51:53.598Z,55.90
2018-09-27T15:54:22.710Z,57.60
2018-09-27T15:56:51.839Z,58.90
2018-09-27T15:59:35.382Z,58.90
2018-09-27T16:02:04.719Z,59.70
2018-09-27T16:04:33.850Z,60.80
2018-09-27T16:07:03.005Z,65.10
2018-09-27T16:09:32.122Z,64.80
2018-09-27T16:12:01.274Z,66.60
2018-09-27T16:14:30.394Z,66.20
2018-09-27T16:16:59.523Z,69.00
2018-09-27T16:19:28.646Z,68.60
2018-09-27T16:21:57.848Z,68.20
2018-09-27T16:24:26.918Z,69.60
2018-09-27T16:26:56.064Z,71.60
2018-09-27T16:29:25.327Z,72.70
2018-09-27T16:31:54.466Z,74.10
2018-09-27T16:34:23.585Z,75.70
2018-09-27T16:36:52.747Z,77.50
2018-09-27T16:39:23.846Z,78.70
2018-09-27T16:41:53.066Z,82.30
2018-09-27T16:44:22.207Z,82.30
2018-09-27T16:46:51.334Z,81.40
2018-09-27T16:49:20.437Z,87.50
2018-09-27T16:51:49.602Z,93.80
2018-09-27T16:54:18.761Z,95.90
2018-09-27T16:56:47.930Z,96.60
2018-09-27T16:59:17.107Z,97.60
2018-09-27T17:01:46.277Z,98.30
2018-09-27T17:04:15.383Z,99.40
2018-09-27T17:06:44.550Z,99.90
2018-09-27T17:09:13.759Z,99.90
2018-09-27T17:11:42.947Z,99.90
2018-09-27T17:14:12.082Z,99.90
2018-09-27T17:16:41.256Z,99.90
2018-09-27T17:19:10.410Z,99.90
2018-09-27T17:21:39.586Z,99.90
2018-09-27T17:24:09.040Z,99.90
2018-09-27T17:26:38.567Z,99.90
2018-09-27T17:29:07.717Z,99.90
2018-09-27T17:31:36.849Z,99.90
2018-09-27T17:34:06.048Z,99.90
2018-09-27T17:36:35.154Z,99.90
2018-09-27T17:39:05.826Z,99.90
2018-09-27T17:41:34.907Z,99.90
2018-09-27T17:44:04.004Z,99.90
2018-09-27T17:46:33.089Z,99.90
2018-09-27T17:49:02.718Z,99.90
2018-09-27T17:51:31.791Z,99.90
2018-09-27T17:54:00.983Z,99.90
2018-09-27T17:56:30.045Z,99.90
2018-09-27T17:58:59.901Z,99.90
2018-09-27T18:01:29.297Z,99.90
2018-09-27T18:03:58.394Z,99.90
2018-09-27T18:06:28.057Z,99.90
2018-09-27T18:08:57.144Z,99.90
2018-09-27T18:11:26.279Z,99.90
2018-09-27T18:13:56.188Z,99.90
2018-09-27T18:16:25.854Z,99.90
2018-09-27T18:18:54.991Z,99.90
2018-09-27T18:21:24.069Z,99.90
2018-09-27T18:23:53.174Z,99.90
2018-09-27T18:26:22.314Z,99.90
2018-09-27T18:28:51.405Z,99.90
2018-09-27T18:31:20.534Z,99.90
2018-09-27T18:33:49.603Z,99.90
2018-09-27T18:36:19.069Z,99.90
2018-09-27T18:38:48.174Z,99.90
2018-09-27T18:41:17.330Z,99.90
2018-09-27T18:43:46.473Z,99.90
2018-09-27T18:46:15.595Z,99.90
2018-09-27T18:48:44.955Z,99.90
2018-09-27T18:51:14.177Z,99.90
2018-09-27T18:53:43.318Z,99.90
2018-09-27T18:56:13.572Z,99.90
2018-09-27T18:58:42.731Z,99.90
2018-09-27T19:01:11.871Z,99.90
2018-09-27T19:03:41.504Z,99.90
2018-09-27T19:06:11.855Z,99.90
2018-09-27T19:08:41.011Z,99.90
2018-09-27T19:11:10.154Z,99.90
2018-09-27T19:13:39.354Z,99.90
2018-09-27T19:16:08.738Z,99.90
2018-09-27T19:18:38.654Z,99.90
2018-09-27T19:21:07.851Z,99.90
2018-09-27T19:23:36.977Z,99.90
2018-09-27T19:26:06.154Z,99.90
2018-09-27T19:28:35.326Z,99.90
2018-09-27T19:31:04.477Z,99.90
2018-09-27T19:33:33.610Z,99.90
2018-09-27T19:36:03.629Z,99.90
2018-09-27T19:38:32.737Z,99.90
2018-09-27T19:41:01.878Z,99.90
2018-09-27T19:43:30.950Z,99.90
2018-09-27T19:46:00.726Z,99.90
2018-09-27T19:48:29.924Z,99.90
2018-09-27T19:51:00.811Z,99.90
2018-09-27T19:53:30.790Z,99.90
2018-09-27T19:56:00.116Z,99.90
2018-09-27T19:58:29.398Z,99.90
2018-09-27T20:00:58.527Z,99.90
2018-09-27T20:03:27.652Z,99.90
2018-09-27T20:05:57.003Z,99.90
2018-09-27T20:08:26.898Z,99.90
2018-09-27T20:10:56.048Z,99.90
2018-09-27T20:13:25.153Z,99.90
2018-09-27T20:15:54.627Z,99.90
2018-09-27T20:18:24.648Z,99.90
2018-09-27T20:20:53.761Z,99.90
2018-09-27T20:23:22.959Z,99.90
2018-09-27T20:25:52.025Z,99.90
2018-09-27T20:28:21.232Z,99.90
2018-09-27T20:30:50.650Z,99.90
2018-09-27T20:33:19.885Z,99.90
2018-09-27T20:35:48.989Z,99.90
2018-09-27T20:38:18.223Z,99.90
2018-09-27T20:40:47.670Z,99.90
2018-09-27T20:43:16.950Z,99.90
2018-09-27T20:45:46.038Z,99.90
2018-09-27T20:48:15.750Z,99.90
2018-09-27T20:50:44.906Z,99.90
2018-09-27T20:53:14.342Z,99.90
2018-09-27T20:55:43.581Z,99.90
2018-09-27T20:58:12.742Z,99.90
2018-09-27T21:00:42.930Z,99.90
2018-09-27T21:03:12.978Z,99.90
2018-09-27T21:05:42.930Z,99.90
2018-09-27T21:08:12.878Z,99.90
2018-09-27T21:10:43.623Z,99.90
2018-09-27T21:13:13.598Z,99.90
2018-09-27T21:15:42.755Z,99.90
2018-09-27T21:18:12.263Z,99.90
2018-09-27T21:20:41.447Z,99.90
2018-09-27T21:23:10.542Z,99.90
2018-09-27T21:25:39.670Z,99.90
2018-09-27T21:28:08.842Z,99.90
2018-09-27T21:30:37.899Z,99.90
2018-09-27T21:33:07.126Z,99.90
2018-09-27T21:35:36.726Z,99.90
2018-09-27T21:38:06.838Z,99.90
2018-09-27T21:40:36.747Z,99.90
2018-09-27T21:43:06.436Z,99.90
2018-09-27T21:45:35.884Z,99.90
2018-09-27T21:48:05.183Z,99.90
2018-09-27T21:50:34.368Z,99.90
2018-09-27T21:53:03.551Z,99.90
2018-09-27T21:55:32.669Z,99.90
2018-09-27T21:58:01.938Z,99.90
2018-09-27T22:00:31.065Z,99.90
2018-09-27T22:03:00.218Z,99.90
2018-09-27T22:05:29.350Z,99.90
2018-09-27T22:07:58.541Z,99.90
2018-09-27T22:10:27.658Z,99.90
2018-09-27T22:12:56.773Z,99.90
2018-09-27T22:15:25.907Z,99.90
2018-09-27T22:17:55.034Z,99.90
2018-09-27T22:20:24.141Z,99.90
2018-09-27T22:22:53.267Z,99.90
2018-09-27T22:25:22.371Z,99.90
2018-09-27T22:27:51.509Z,99.90
2018-09-27T22:30:20.641Z,99.90
2018-09-27T22:32:49.779Z,99.90
2018-09-27T22:35:18.897Z,99.90
2018-09-27T22:37:48.069Z,99.90
2018-09-27T22:40:17.263Z,99.90
2018-09-27T22:42:46.414Z,99.90
2018-09-27T22:45:15.714Z,99.90
2018-09-27T22:47:45.227Z,99.90
2018-09-27T22:50:14.342Z,99.90
2018-09-27T22:52:43.501Z,99.90
2018-09-27T22:55:12.682Z,99.90
2018-09-27T22:57:41.955Z,99.90
2018-09-27T23:00:11.062Z,99.90
2018-09-27T23:02:40.203Z,99.90
2018-09-27T23:05:09.381Z,99.90
2018-09-27T23:07:38.553Z,99.90
2018-09-27T23:10:07.693Z,99.90
2018-09-27T23:12:36.861Z,99.90
2018-09-27T23:17:39.941Z,99.90
2018-09-27T23:20:10.201Z,99.90
2018-09-27T23:22:39.534Z,99.90
2018-09-27T23:25:09.015Z,99.90
2018-09-27T23:27:38.213Z,99.90
2018-09-27T23:30:07.394Z,99.90
2018-09-27T23:32:36.624Z,99.90
2018-09-27T23:35:06.252Z,99.90
2018-09-27T23:37:35.514Z,99.90
2018-09-27T23:40:04.744Z,99.90
2018-09-27T23:42:33.890Z,99.90
2018-09-27T23:45:03.366Z,99.90
2018-09-27T23:47:32.465Z,99.90
2018-09-27T23:50:01.590Z,99.90
2018-09-27T23:52:30.698Z,99.90
2018-09-27T23:54:59.857Z,99.90
2018-09-27T23:57:28.963Z,99.90
2018-09-27T23:59:58.103Z,99.90
